Time;durP1;ratioP1;P1;durP2;ratioP2;P2;SDS_P1;SDS_P2;PMS_P1;PMS_P2;Temp;Humidity;BMP_temperature;BMP_pressure;BME280_temperature;BME280_humidity;BME280_pressure;Samples;Min_cycle;Max_cycle;Signal;HPM_P1;HPM_P2
2022/10/01 00:02:00;;;;;;;2.70;2.00;;;;;;;23.80;48.52;100994.34;5029928;28;20059;-69
2022/10/01 00:04:28;;;;;;;2.78;2.10;;;;;;;23.75;49.45;100998.84;5030186;28;20133;-71
2022/10/01 00:07:03;;;;;;;2.55;2.05;;;;;;;23.71;50.24;100990.13;5031644;28;20053;-69
2022/10/01 00:09:32;;;;;;;4.80;2.20;;;;;;;23.70;50.31;100990.13;5036981;28;20076;-69
2022/10/01 00:12:01;;;;;;;3.95;2.20;;;;;;;23.66;50.46;100986.66;5034723;28;20049;-70
2022/10/01 00:14:30;;;;;;;3.15;2.42;;;;;;;23.61;48.31;100986.75;5031292;28;20122;-72
2022/10/01 00:16:58;;;;;;;4.45;2.40;;;;;;;23.61;49.06;100986.75;5024835;28;20045;-73
2022/10/01 00:19:27;;;;;;;2.30;2.10;;;;;;;23.60;49.64;100979.75;5015998;28;20053;-68
2022/10/01 00:21:55;;;;;;;4.45;2.40;;;;;;;23.57;49.41;100987.75;5024293;28;20045;-68
2022/10/01 00:24:25;;;;;;;4.30;2.50;;;;;;;;;;5026750;28;20407;-69
2022/10/01 00:26:53;;;;;;;3.83;2.40;;;;;;;23.49;50.05;100967.69;5028466;28;20102;-69
2022/10/01 00:29:22;;;;;;;4.78;2.10;;;;;;;23.46;50.48;100973.91;5030879;28;20045;-70
2022/10/01 00:31:50;;;;;;;4.53;2.40;;;;;;;23.42;51.40;100973.06;5024912;28;20041;-71
2022/10/01 00:34:19;;;;;;;4.15;2.53;;;;;;;23.37;51.05;100961.75;5033639;28;20115;-71
2022/10/01 00:36:48;;;;;;;2.88;2.20;;;;;;;23.31;51.64;100961.00;5024579;28;20038;-70
2022/10/01 00:39:16;;;;;;;6.60;3.95;;;;;;;23.25;51.47;100969.94;5028140;28;20144;-71
2022/10/01 00:41:46;;;;;;;3.25;2.50;;;;;;;23.18;52.67;100969.16;5026663;28;20073;-69
2022/10/01 00:44:35;;;;;;;4.20;2.92;;;;;;;23.14;51.49;100961.34;5026228;28;20077;-72
2022/10/01 00:47:13;;;;;;;3.70;2.67;;;;;;;23.07;51.45;100962.38;5016356;28;20045;-70
2022/10/01 00:49:41;;;;;;;3.63;2.60;;;;;;;23.05;52.09;100962.38;5022060;28;20091;-70
2022/10/01 00:52:15;;;;;;;3.47;2.50;;;;;;;23.00;52.52;100961.59;5022157;28;20589;-71
2022/10/01 00:54:48;;;;;;;6.03;3.55;;;;;;;22.92;52.01;100958.19;5033043;28;20041;-70
2022/10/01 00:57:23;;;;;;;3.83;2.97;;;;;;;22.89;52.05;100959.13;5026014;28;20056;-69
2022/10/01 00:59:52;;;;;;;4.80;4.30;;;;;;;22.83;52.94;100955.72;5029120;28;20549;-71
2022/10/01 01:02:21;;;;;;;8.30;5.70;;;;;;;22.77;53.24;100948.81;5028327;28;20045;-69
2022/10/01 01:04:49;;;;;;;7.78;4.80;;;;;;;22.73;52.40;100947.97;5030100;28;20041;-68
2022/10/01 01:07:19;;;;;;;5.75;5.10;;;;;;;22.69;53.14;100945.41;5026598;28;20045;-68
2022/10/01 01:09:50;;;;;;;4.20;2.70;;;;;;;22.62;53.32;100955.19;5025141;28;20527;-68
2022/10/01 01:12:34;;;;;;;3.08;2.53;;;;;;;22.56;53.68;100947.38;5027311;28;20107;-70
2022/10/01 01:15:14;;;;;;;2.80;2.17;;;;;;;22.50;54.07;100951.00;5022059;27;20054;-70
2022/10/01 01:17:55;;;;;;;4.35;2.40;;;;;;;22.45;55.47;100947.59;5015455;28;20049;-70
2022/10/01 01:20:46;;;;;;;5.30;2.80;;;;;;;22.38;55.04;100944.19;4994388;28;20049;-73
2022/10/01 01:23:47;;;;;;;4.00;2.80;;;;;;;22.31;55.14;100944.28;5014839;28;20124;-70
2022/10/01 01:26:30;;;;;;;5.85;2.70;;;;;;;22.24;55.65;100951.44;5013080;28;20053;-70
2022/10/01 01:29:05;;;;;;;3.22;2.72;;;;;;;22.16;56.49;100946.22;4999423;28;20103;-71
2022/10/01 01:31:45;;;;;;;3.92;2.28;;;;;;;22.10;56.61;100942.81;5002635;28;20054;-73
2022/10/01 01:34:19;;;;;;;2.80;2.20;;;;;;;22.05;56.58;100947.28;5009132;28;20050;-73
2022/10/01 01:36:53;;;;;;;3.30;2.25;;;;;;;21.99;56.77;100944.75;5006631;28;20108;-71
2022/10/01 01:39:25;;;;;;;3.17;2.38;;;;;;;21.88;57.66;100943.16;5012724;28;20060;-73
2022/10/01 01:41:56;;;;;;;;;;;;;;;21.83;57.84;100950.25;5004786;28;20049;-72
2022/10/01 01:44:32;;;;;;;3.25;2.00;;;;;;;21.75;57.59;100944.22;5008591;28;20406;-68
2022/10/01 01:47:04;;;;;;;3.00;2.40;;;;;;;21.66;59.04;100939.94;5002762;28;20124;-72
2022/10/01 01:49:33;;;;;;;3.05;2.40;;;;;;;21.59;58.44;100946.16;4999412;28;20046;-71
2022/10/01 01:52:06;;;;;;;3.88;1.92;;;;;;;21.51;58.59;100943.66;4990968;28;20039;-69
2022/10/01 01:54:36;;;;;;;7.78;2.40;;;;;;;21.45;59.44;100940.22;4998843;28;20512;-71
2022/10/01 01:57:05;;;;;;;3.38;2.50;;;;;;;21.39;59.63;100935.84;5004923;28;20061;-70
2022/10/01 01:59:37;;;;;;;3.15;2.20;;;;;;;21.35;59.71;100942.06;4998250;28;20717;-70
2022/10/01 02:02:13;;;;;;;6.00;2.50;;;;;;;21.26;59.15;100927.25;5006319;28;20495;-70
2022/10/01 02:04:45;;;;;;;2.75;1.90;;;;;;;21.28;61.11;100935.09;5007293;28;20049;-70
2022/10/01 02:07:51;;;;;;;9.02;3.67;;;;;;;21.20;60.86;100939.59;4994213;28;20046;-71
2022/10/01 02:10:33;;;;;;;3.05;2.15;;;;;;;21.15;60.69;100941.44;4998828;28;20055;-69
2022/10/01 02:13:17;;;;;;;3.97;2.67;;;;;;;21.07;61.17;100942.38;5007440;28;20046;-70
2022/10/01 02:15:58;;;;;;;2.75;2.33;;;;;;;21.00;61.72;100943.31;5015052;28;20550;-68
2022/10/01 02:18:34;;;;;;;6.15;2.90;;;;;;;20.93;62.20;100941.63;5004326;28;20046;-69
2022/10/01 02:21:11;;;;;;;3.53;2.35;;;;;;;20.86;62.61;100939.97;4997534;28;20057;-69
2022/10/01 02:23:44;;;;;;;4.78;2.70;;;;;;;20.80;63.06;100940.91;4997360;28;20553;-69
2022/10/01 02:26:18;;;;;;;5.95;2.50;;;;;;;20.73;63.20;100938.31;4997531;28;20097;-69
2022/10/01 02:28:51;;;;;;;4.13;2.58;;;;;;;20.69;63.39;100932.25;5000643;28;20547;-70
2022/10/01 02:31:24;;;;;;;5.72;2.85;;;;;;;20.63;63.87;100930.53;5003403;28;20046;-70
2022/10/01 02:33:55;;;;;;;4.82;3.08;;;;;;;20.59;63.81;100931.47;4995396;28;20081;-69
2022/10/01 02:36:27;;;;;;;5.03;3.20;;;;;;;20.54;63.88;100927.09;5003306;28;20514;-71
2022/10/01 02:38:57;;;;;;;5.97;2.70;;;;;;;20.50;64.19;100935.00;5005803;28;20054;-70
2022/10/01 02:41:31;;;;;;;4.32;2.72;;;;;;;20.47;65.02;100931.53;5006987;28;20116;-70
2022/10/01 02:44:05;;;;;;;6.00;2.70;;;;;;;20.40;64.99;100935.09;5001373;28;20072;-69
2022/10/01 02:46:43;;;;;;;3.20;2.55;;;;;;;20.36;65.13;100930.72;5002626;28;20141;-69
2022/10/01 02:49:13;;;;;;;4.10;2.80;;;;;;;20.29;65.58;100928.19;5007460;28;20046;-67
2022/10/01 02:51:49;;;;;;;5.20;2.65;;;;;;;20.26;65.99;100932.56;5007438;28;20046;-68
2022/10/01 02:54:26;;;;;;;3.50;2.78;;;;;;;20.20;66.16;100937.84;5003285;28;20411;-68
2022/10/01 02:59:41;;;;;;;4.65;3.30;;;;;;;20.10;66.59;100939.69;5006745;28;20632;-68
2022/10/01 03:02:11;;;;;;;4.53;3.55;;;;;;;20.05;67.06;100950.22;5004210;28;20050;-72
2022/10/01 03:04:40;;;;;;;5.43;4.03;;;;;;;20.02;67.25;100946.72;5007437;28;20527;-70
2022/10/01 03:07:08;;;;;;;4.10;3.03;;;;;;;19.97;67.46;100945.91;5003785;28;20045;-71
2022/10/01 03:09:37;;;;;;;4.28;3.17;;;;;;;19.95;67.19;100950.28;5000693;28;20622;-71
2022/10/01 03:12:06;;;;;;;4.55;2.90;;;;;;;19.90;67.24;100952.06;5002220;28;20539;-70
2022/10/01 03:14:34;;;;;;;3.53;2.83;;;;;;;19.85;67.22;100952.09;5004740;28;20479;-71
2022/10/01 03:17:03;;;;;;;4.85;3.03;;;;;;;19.82;67.54;100941.63;5026392;28;20519;-70
2022/10/01 03:19:33;;;;;;;4.57;2.83;;;;;;;19.80;67.32;100953.88;5021945;28;20084;-71
2022/10/01 03:22:02;;;;;;;4.28;3.00;;;;;;;19.76;67.35;100947.75;5026602;28;20058;-71
2022/10/01 03:24:31;;;;;;;3.85;3.22;;;;;;;19.75;67.68;100951.28;5026886;28;20676;-70
2022/10/01 03:27:00;;;;;;;5.38;3.30;;;;;;;19.72;67.43;100953.03;5026493;28;20045;-71
2022/10/01 03:29:29;;;;;;;5.28;3.15;;;;;;;19.68;67.50;100952.16;5026149;28;20041;-71
2022/10/01 03:31:57;;;;;;;4.72;3.15;;;;;;;19.66;67.33;100959.16;5023389;28;20050;-71
2022/10/01 03:34:26;;;;;;;5.60;3.38;;;;;;;19.61;67.36;100956.56;5025507;28;20052;-71
2022/10/01 03:36:56;;;;;;;3.65;3.28;;;;;;;19.59;67.29;100965.34;5022875;28;20065;-71
2022/10/01 03:39:25;;;;;;;6.10;3.33;;;;;;;19.56;67.47;100960.06;5026738;28;20045;-71
2022/10/01 03:41:53;;;;;;;4.22;3.20;;;;;;;19.51;67.56;100969.72;5030335;28;20053;-70
2022/10/01 03:44:22;;;;;;;5.90;3.55;;;;;;;19.45;67.58;100963.63;5038010;28;20506;-70
2022/10/01 03:46:51;;;;;;;5.32;3.42;;;;;;;19.43;67.68;100975.00;5025486;28;20060;-71
2022/10/01 03:49:19;;;;;;;4.07;3.30;;;;;;;19.41;68.24;100968.91;5022835;28;20057;-70
2022/10/01 03:51:48;;;;;;;7.28;3.83;;;;;;;19.38;67.93;100966.28;5021802;28;21017;-71
2022/10/01 03:54:19;;;;;;;4.63;3.53;;;;;;;19.36;68.27;100968.91;5025630;28;20053;-70
2022/10/01 03:56:48;;;;;;;7.25;3.85;;;;;;;19.29;68.47;100963.66;5023347;28;20090;-72
2022/10/01 03:59:16;;;;;;;6.20;3.80;;;;;;;19.31;68.29;100968.06;5029492;28;20403;-70
2022/10/01 04:01:45;;;;;;;4.65;3.20;;;;;;;19.27;68.68;100962.84;5022068;28;20054;-70
2022/10/01 04:04:13;;;;;;;6.47;3.30;;;;;;;19.24;68.27;100968.94;5025805;28;20045;-72
2022/10/01 04:06:42;;;;;;;5.57;3.15;;;;;;;19.21;68.84;100963.69;5023234;28;20559;-72
2022/10/01 04:09:11;;;;;;;4.28;3.40;;;;;;;19.20;68.64;100967.22;5031938;28;20060;-71
2022/10/01 04:11:41;;;;;;;4.70;3.88;;;;;;;19.17;68.80;100961.97;5030734;28;20056;-71
2022/10/01 04:14:09;;;;;;;6.70;3.85;;;;;;;19.16;68.71;100970.72;5026225;28;20144;-70
2022/10/01 04:16:38;;;;;;;4.75;3.80;;;;;;;19.15;68.82;100964.59;5025403;28;21023;-71
2022/10/01 04:19:06;;;;;;;4.97;3.33;;;;;;;19.12;68.92;100963.72;5024303;28;20511;-71
2022/10/01 04:21:35;;;;;;;6.68;4.20;;;;;;;19.11;69.09;100962.00;5029373;28;20057;-71
2022/10/01 04:24:04;;;;;;;6.63;3.75;;;;;;;19.09;69.08;100963.75;5026285;28;20057;-69
2022/10/01 04:26:32;;;;;;;5.03;3.88;;;;;;;19.07;69.30;100958.50;5021870;28;20053;-71
2022/10/01 04:29:02;;;;;;;5.57;3.88;;;;;;;19.07;69.12;100968.13;5026068;28;20053;-70
2022/10/01 04:31:33;;;;;;;5.22;4.00;;;;;;;19.03;69.50;100965.50;5026032;28;20061;-71
2022/10/01 04:34:02;;;;;;;6.78;3.50;;;;;;;19.02;69.79;100957.63;5025118;28;20057;-71
2022/10/01 04:36:30;;;;;;;4.78;3.38;;;;;;;19.00;69.74;100967.25;5024519;28;20590;-70
2022/10/01 04:38:59;;;;;;;5.05;3.78;;;;;;;18.98;69.80;100962.00;5024746;28;20061;-71
2022/10/01 04:41:29;;;;;;;5.88;3.83;;;;;;;18.93;69.69;100953.28;5019684;28;20053;-70
2022/10/01 04:43:58;;;;;;;5.13;3.75;;;;;;;18.91;70.06;100955.03;5021987;28;20077;-71
2022/10/01 04:46:28;;;;;;;6.93;3.40;;;;;;;18.91;70.02;100954.16;5019525;28;20527;-71
2022/10/01 04:48:57;;;;;;;5.22;3.42;;;;;;;18.90;69.87;100953.28;5023532;28;20041;-71
2022/10/01 04:51:25;;;;;;;6.35;3.75;;;;;;;18.89;69.71;100951.53;5028269;28;20046;-71
2022/10/01 04:53:54;;;;;;;5.20;3.83;;;;;;;18.88;69.83;100949.78;5028508;28;20045;-70
2022/10/01 04:56:23;;;;;;;5.85;3.80;;;;;;;18.89;70.11;100951.53;5025955;28;20072;-72
2022/10/01 04:58:52;;;;;;;4.95;3.42;;;;;;;18.90;69.58;100947.16;5022857;28;20563;-71
2022/10/01 05:01:20;;;;;;;6.85;3.47;;;;;;;18.91;69.35;100954.16;5023182;28;20056;-71
2022/10/01 05:03:51;;;;;;;4.93;3.65;;;;;;;18.88;69.67;100944.56;5024813;28;20042;-72
2022/10/01 05:06:19;;;;;;;5.45;4.07;;;;;;;18.92;69.66;100946.31;5021978;28;20052;-71
2022/10/01 05:08:48;;;;;;;7.13;5.00;;;;;;;18.93;69.41;100947.16;5028693;28;20581;-72
2022/10/01 05:11:17;;;;;;;6.85;4.32;;;;;;;18.93;68.82;100948.03;5033159;28;20037;-73
2022/10/01 05:13:46;;;;;;;6.55;4.15;;;;;;;18.95;68.93;100950.66;5020942;28;21036;-71
2022/10/01 05:16:14;;;;;;;5.63;3.78;;;;;;;18.95;68.70;100948.91;5013412;28;20297;-71
2022/10/01 05:18:43;;;;;;;5.13;3.40;;;;;;;18.99;68.52;100949.78;5006698;28;20050;-71
2022/10/01 05:21:14;;;;;;;4.07;3.40;;;;;;;18.99;68.70;100953.28;4997623;28;20054;-71
2022/10/01 05:23:43;;;;;;;5.75;4.20;;;;;;;18.98;68.46;100956.75;5004187;28;20467;-69
2022/10/01 05:26:12;;;;;;;8.77;4.53;;;;;;;18.98;68.23;100951.50;4999436;28;20108;-71
2022/10/01 05:28:43;;;;;;;7.28;5.70;;;;;;;18.99;68.13;100958.53;5004960;28;20053;-70
2022/10/01 05:31:12;;;;;;;6.00;3.58;;;;;;;19.00;68.15;100957.63;5012483;28;20129;-72
2022/10/01 05:33:41;;;;;;;5.63;3.33;;;;;;;18.99;68.16;100955.03;5006932;28;20676;-71
2022/10/01 05:36:12;;;;;;;5.32;4.05;;;;;;;18.98;67.94;100948.88;5008163;28;20081;-70
2022/10/01 05:38:41;;;;;;;6.18;4.72;;;;;;;19.00;68.45;100955.00;5006989;28;20530;-71
2022/10/01 05:41:10;;;;;;;6.68;4.88;;;;;;;18.99;67.85;100955.91;5006108;28;20171;-70
2022/10/01 05:43:38;;;;;;;7.13;4.22;;;;;;;19.00;67.92;100954.13;5004330;28;20151;-71
2022/10/01 05:46:09;;;;;;;6.30;4.25;;;;;;;19.00;67.95;100960.25;5001068;28;20042;-71
2022/10/01 05:48:37;;;;;;;6.55;3.42;;;;;;;19.00;67.63;100954.13;5001818;28;20054;-71
2022/10/01 05:51:07;;;;;;;5.60;3.70;;;;;;;18.98;68.07;100956.75;4999928;28;20050;-71
2022/10/01 05:53:37;;;;;;;4.25;3.28;;;;;;;18.98;67.86;100956.75;5003476;28;20672;-73
2022/10/01 05:56:07;;;;;;;8.63;3.55;;;;;;;18.97;67.89;100944.53;5010851;28;20130;-71
2022/10/01 05:58:35;;;;;;;4.47;3.38;;;;;;;18.96;67.50;100958.50;5011548;28;20519;-69
2022/10/01 06:01:04;;;;;;;4.50;3.33;;;;;;;18.93;67.88;100955.03;5006992;28;20072;-70
2022/10/01 06:03:33;;;;;;;4.47;3.08;;;;;;;18.91;68.16;100957.66;5000712;28;20104;-69
2022/10/01 06:06:04;;;;;;;4.80;3.17;;;;;;;18.90;67.67;100953.28;5005409;28;21106;-70
2022/10/01 06:08:34;;;;;;;3.33;2.67;;;;;;;18.89;67.61;100955.91;5002370;28;20045;-70
2022/10/01 06:11:04;;;;;;;4.93;3.55;;;;;;;18.88;67.68;100960.28;5000892;28;20066;-70
2022/10/01 06:13:33;;;;;;;6.97;3.38;;;;;;;18.86;67.70;100961.16;5004690;28;20066;-70
2022/10/01 06:16:01;;;;;;;5.43;3.72;;;;;;;18.83;67.92;100967.28;5019848;28;20064;-70
2022/10/01 06:18:30;;;;;;;5.53;3.53;;;;;;;18.82;67.76;100971.63;5024996;28;20061;-70
2022/10/01 06:21:00;;;;;;;5.30;3.42;;;;;;;18.81;67.61;100969.91;5016190;28;20506;-70
2022/10/01 06:23:28;;;;;;;5.22;3.15;;;;;;;18.78;67.62;100964.69;5026835;28;20049;-70
2022/10/01 06:25:57;;;;;;;4.07;3.08;;;;;;;18.78;68.00;100976.88;5030100;28;20526;-70
2022/10/01 06:28:28;;;;;;;4.80;3.45;;;;;;;18.78;67.62;100969.00;5023504;28;20046;-70
2022/10/01 06:30:56;;;;;;;4.13;3.00;;;;;;;18.75;67.63;100975.09;5029638;28;20045;-70
2022/10/01 06:33:25;;;;;;;4.95;3.30;;;;;;;18.74;67.74;100970.75;5022230;28;20076;-70
2022/10/01 06:35:53;;;;;;;7.07;3.88;;;;;;;18.74;67.61;100977.75;5021651;28;20046;-70
2022/10/01 06:38:24;;;;;;;4.47;3.38;;;;;;;18.71;68.04;100973.34;5022800;28;20045;-69
2022/10/01 06:40:54;;;;;;;6.50;3.13;;;;;;;18.70;68.08;100974.25;5030799;28;20415;-70
2022/10/01 06:43:22;;;;;;;5.50;2.97;;;;;;;18.69;67.56;100979.47;5026032;28;20139;-70
2022/10/01 06:45:53;;;;;;;4.82;2.92;;;;;;;18.68;67.76;100978.59;5024124;28;20479;-70
2022/10/01 06:48:22;;;;;;;4.65;3.00;;;;;;;18.67;68.03;100981.22;5025365;28;20566;-68
2022/10/01 06:50:52;;;;;;;4.45;3.17;;;;;;;18.67;67.73;100982.13;5027572;28;20491;-69
2022/10/01 06:53:20;;;;;;;6.15;3.88;;;;;;;18.66;67.75;100974.25;5025696;28;20053;-68
2022/10/01 06:55:49;;;;;;;7.65;3.47;;;;;;;18.65;67.55;100981.25;5027836;28;20041;-68
2022/10/01 06:58:19;;;;;;;4.43;3.05;;;;;;;18.63;67.40;100975.13;5014657;28;20050;-68
2022/10/01 07:00:49;;;;;;;4.38;3.45;;;;;;;18.60;67.80;100976.00;5029387;28;20060;-67
2022/10/01 07:03:21;;;;;;;3.67;2.75;;;;;;;18.59;67.54;100983.84;5023633;28;20753;-68
2022/10/01 07:05:50;;;;;;;5.53;3.30;;;;;;;18.57;68.09;100986.47;5020790;28;20517;-68
2022/10/01 07:08:19;;;;;;;6.75;3.33;;;;;;;18.55;67.86;100982.09;5023654;28;20044;-67
2022/10/01 07:10:48;;;;;;;5.47;3.22;;;;;;;18.52;68.21;100976.88;5027884;28;20044;-67
2022/10/01 07:13:19;;;;;;;4.15;3.25;;;;;;;18.46;68.03;100969.84;5027717;28;20051;-68
2022/10/01 07:15:48;;;;;;;4.85;3.42;;;;;;;18.46;67.97;100985.56;5029482;27;20521;-67
2022/10/01 07:18:18;;;;;;;4.70;3.45;;;;;;;18.42;68.09;100986.47;5027364;28;20589;-68
2022/10/01 07:20:47;;;;;;;4.45;3.28;;;;;;;18.41;68.16;100984.72;5023524;28;20061;-68
2022/10/01 07:23:16;;;;;;;5.28;2.95;;;;;;;18.37;68.25;100988.19;5020440;28;20053;-68
2022/10/01 07:25:45;;;;;;;4.13;2.90;;;;;;;18.32;68.25;100980.31;5019891;28;20130;-67
2022/10/01 07:28:18;;;;;;;4.50;3.60;;;;;;;18.30;68.10;100991.69;5022896;28;20049;-67
2022/10/01 07:30:48;;;;;;;5.38;3.53;;;;;;;18.25;68.72;100988.19;5021405;28;20384;-68
2022/10/01 07:33:21;;;;;;;9.30;3.10;;;;;;;18.21;68.70;100987.31;5022068;28;20488;-68
2022/10/01 07:35:50;;;;;;;3.97;3.33;;;;;;;18.17;68.65;100996.91;5025129;28;20037;-68
2022/10/01 07:38:18;;;;;;;4.80;3.13;;;;;;;18.13;68.48;100987.28;5025711;28;20102;-67
2022/10/01 07:40:52;;;;;;;3.88;2.85;;;;;;;18.09;68.89;100972.44;5020646;28;20051;-67
2022/10/01 07:43:21;;;;;;;4.18;2.58;;;;;;;18.07;68.93;100968.94;5018769;28;20054;-68
2022/10/01 07:45:51;;;;;;;4.25;3.22;;;;;;;18.05;69.33;100975.94;5019400;28;20041;-67
2022/10/01 07:48:21;;;;;;;5.38;3.28;;;;;;;18.02;69.86;100989.00;5025962;28;20502;-68
2022/10/01 07:50:50;;;;;;;6.07;3.53;;;;;;;17.98;70.21;100982.91;5028994;28;20056;-68
2022/10/01 07:53:18;;;;;;;3.75;3.35;;;;;;;17.93;70.76;100976.75;5019167;28;20056;-67
2022/10/01 07:55:47;;;;;;;6.35;3.45;;;;;;;17.91;71.30;100982.88;5023571;28;20061;-68
2022/10/01 07:58:17;;;;;;;7.00;3.88;;;;;;;17.89;71.31;100984.59;5020470;28;20260;-68
2022/10/01 08:00:46;;;;;;;4.43;3.35;;;;;;;17.87;71.82;100981.13;5020919;28;20082;-69
2022/10/01 08:03:14;;;;;;;3.80;3.05;;;;;;;17.84;72.02;100981.97;5027916;28;20049;-68
2022/10/01 08:05:45;;;;;;;5.07;3.25;;;;;;;17.83;71.47;100976.75;5024723;28;20049;-69
2022/10/01 08:08:13;;;;;;;4.28;2.47;;;;;;;17.80;71.61;100975.84;5019177;28;20132;-69
2022/10/01 08:10:42;;;;;;;3.78;2.85;;;;;;;17.78;71.42;100976.69;5019095;28;20053;-69
2022/10/01 08:13:14;;;;;;;5.03;2.67;;;;;;;17.75;71.81;100972.34;5020602;28;20417;-68
2022/10/01 08:15:44;;;;;;;6.75;3.28;;;;;;;17.74;71.38;100975.81;5023363;28;20468;-67
2022/10/01 08:18:13;;;;;;;5.22;3.58;;;;;;;17.73;71.53;100968.84;5023800;28;20049;-69
2022/10/01 08:20:44;;;;;;;5.03;3.17;;;;;;;17.71;71.38;100970.56;5021598;28;20515;-68
2022/10/01 08:23:14;;;;;;;3.35;2.63;;;;;;;17.69;71.74;100960.97;5022475;28;20050;-68
2022/10/01 08:25:46;;;;;;;5.95;3.13;;;;;;;17.68;71.95;100965.31;5019821;28;20054;-68
2022/10/01 08:28:16;;;;;;;5.30;3.10;;;;;;;17.66;72.30;100961.84;5019830;28;20077;-68
2022/10/01 08:30:44;;;;;;;3.55;3.13;;;;;;;17.65;72.02;100964.44;5021663;28;20049;-68
2022/10/01 08:33:14;;;;;;;6.00;2.63;;;;;;;17.64;72.87;100966.19;5022557;28;20057;-69
2022/10/01 08:35:44;;;;;;;6.07;3.97;;;;;;;17.60;73.12;100956.56;5017789;28;20064;-68
2022/10/01 08:38:13;;;;;;;4.78;3.63;;;;;;;17.58;72.99;100958.31;5023023;28;20056;-70
2022/10/01 08:40:47;;;;;;;4.30;3.15;;;;;;;17.55;72.85;100947.84;5019012;28;20732;-69
2022/10/01 08:43:29;;;;;;;3.17;2.65;;;;;;;17.54;72.44;100954.78;5020556;28;20064;-68
2022/10/01 08:46:01;;;;;;;6.53;3.27;;;;;;;17.52;72.75;100953.94;5019403;28;20840;-69
2022/10/01 08:48:33;;;;;;;;;;;;;;;17.51;72.96;100944.31;5024018;28;20057;-69
2022/10/01 08:51:08;;;;;;;4.68;3.17;;;;;;;17.50;72.98;100945.19;5026607;28;19928;-69
2022/10/01 08:53:40;;;;;;;4.32;2.67;;;;;;;17.48;72.58;100940.84;5022219;28;20057;-69
2022/10/01 08:56:19;;;;;;;7.22;2.97;;;;;;;17.46;73.15;100937.34;5022443;28;20053;-69
2022/10/01 08:58:53;;;;;;;4.80;2.72;;;;;;;17.45;73.36;100944.28;5019484;28;20045;-69
2022/10/01 09:01:22;;;;;;;6.45;3.05;;;;;;;17.43;72.79;100948.66;5017821;28;20072;-69
2022/10/01 09:03:51;;;;;;;5.20;3.20;;;;;;;17.43;72.75;100948.66;5014902;28;21238;-69
2022/10/01 09:06:24;;;;;;;5.35;3.28;;;;;;;17.41;73.05;100947.78;5028939;28;20451;-68
2022/10/01 09:09:07;;;;;;;6.43;3.50;;;;;;;17.40;73.15;100951.25;5026867;28;20226;-69
2022/10/01 09:11:52;;;;;;;5.15;3.00;;;;;;;17.38;72.81;100947.75;5030675;28;20068;-69
2022/10/01 09:14:36;;;;;;;5.30;2.75;;;;;;;17.37;73.52;100939.03;5022353;28;20577;-69
2022/10/01 09:17:15;;;;;;;4.45;2.88;;;;;;;17.36;72.87;100941.63;5034725;28;20632;-68
2022/10/01 09:20:07;;;;;;;4.47;3.67;;;;;;;17.33;73.20;100942.50;5022162;28;21343;-69
2022/10/01 09:22:40;;;;;;;5.40;3.38;;;;;;;17.32;73.57;100938.13;5014848;28;20525;-68
2022/10/01 09:25:14;;;;;;;8.18;3.45;;;;;;;17.30;73.55;100936.38;5008070;28;20056;-68
2022/10/01 09:27:44;;;;;;;5.63;3.20;;;;;;;17.26;73.35;100927.63;5025220;28;20050;-68
2022/10/01 09:30:17;;;;;;;4.95;2.67;;;;;;;17.23;73.39;100932.88;5021721;28;20053;-68
2022/10/01 09:32:52;;;;;;;5.40;3.30;;;;;;;17.21;74.00;100931.13;5025916;28;20046;-69
2022/10/01 09:35:33;;;;;;;7.45;2.95;;;;;;;17.12;73.78;100929.31;5015193;28;20045;-68
2022/10/01 09:38:07;;;;;;;8.18;3.53;;;;;;;17.16;74.30;100933.72;5020537;28;20298;-68
2022/10/01 09:40:39;;;;;;;4.45;2.92;;;;;;;17.13;74.33;100928.44;5024585;28;20049;-68
2022/10/01 09:43:08;;;;;;;6.25;3.08;;;;;;;17.12;74.80;100937.16;5016189;28;20050;-68
2022/10/01 09:45:38;;;;;;;7.00;3.63;;;;;;;17.10;74.85;100933.66;5024836;28;20049;-68
2022/10/01 09:48:30;;;;;;;5.10;2.85;;;;;;;17.09;74.96;100937.16;5023467;28;20049;-68
2022/10/01 09:51:04;;;;;;;10.73;3.42;;;;;;;17.06;74.43;100937.97;5018383;28;20116;-68
2022/10/01 09:53:43;;;;;;;5.93;3.75;;;;;;;17.06;74.93;100937.13;5016646;28;20519;-68
2022/10/01 09:56:17;;;;;;;5.68;3.50;;;;;;;17.04;75.22;100934.53;5026074;28;20586;-68
2022/10/01 09:58:49;;;;;;;3.85;2.92;;;;;;;17.01;74.69;100934.47;5024331;28;20053;-68
2022/10/01 10:01:21;;;;;;;;;;;;;;;17.02;74.56;100937.97;5022516;28;20046;-68
2022/10/01 10:03:57;;;;;;;5.63;3.60;;;;;;;17.01;75.06;100933.59;5024022;28;19955;-67
2022/10/01 10:06:29;;;;;;;4.63;3.17;;;;;;;16.98;75.48;100933.59;5022309;28;20133;-68
2022/10/01 10:09:02;;;;;;;5.15;2.97;;;;;;;16.98;75.50;100933.59;5030209;28;20095;-68
2022/10/01 10:11:32;;;;;;;5.05;3.03;;;;;;;16.95;75.73;100927.50;5028082;28;20065;-69
2022/10/01 10:14:02;;;;;;;9.50;4.22;;;;;;;16.97;75.75;100927.47;5024468;28;20046;-68
2022/10/01 10:16:34;;;;;;;8.32;3.50;;;;;;;16.95;75.39;100926.63;5013855;28;20066;-69
2022/10/01 10:19:09;;;;;;;6.15;3.33;;;;;;;16.91;75.74;100917.88;5007514;28;20138;-69
2022/10/01 10:21:37;;;;;;;5.82;3.83;;;;;;;16.92;75.19;100914.38;5000954;28;20487;-69
2022/10/01 10:24:25;;;;;;;5.00;3.35;;;;;;;16.91;75.60;100907.41;5004672;28;20050;-68
2022/10/01 10:26:56;;;;;;;5.20;3.65;;;;;;;16.92;74.98;100901.31;5002105;28;20140;-69
2022/10/01 10:29:30;;;;;;;5.63;3.27;;;;;;;16.92;75.54;100903.06;5008627;28;20051;-69
2022/10/01 10:31:59;;;;;;;6.82;3.53;;;;;;;16.91;75.37;100904.81;5001474;28;20133;-69
2022/10/01 10:34:33;;;;;;;7.13;3.40;;;;;;;16.91;75.46;100906.56;5002502;28;20041;-68
2022/10/01 10:37:07;;;;;;;5.35;3.17;;;;;;;16.90;75.72;100899.56;5008281;28;20507;-69
2022/10/01 10:39:39;;;;;;;6.55;3.28;;;;;;;16.86;75.52;100896.06;5002148;28;20702;-68
2022/10/01 10:42:10;;;;;;;5.65;3.95;;;;;;;16.85;75.60;100902.16;5004716;28;20061;-68
2022/10/01 10:44:39;;;;;;;8.35;4.18;;;;;;;16.82;75.25;100902.13;5005016;28;20049;-68
2022/10/01 10:47:10;;;;;;;5.97;4.28;;;;;;;16.80;75.33;100897.78;5011350;28;20519;-68
2022/10/01 10:49:44;;;;;;;6.60;4.55;;;;;;;16.80;74.82;100895.16;5016220;28;20045;-67
2022/10/01 10:52:28;;;;;;;6.43;4.20;;;;;;;16.78;75.21;100900.31;5012327;28;20330;-68
2022/10/01 10:55:01;;;;;;;8.68;4.03;;;;;;;16.76;75.84;100891.59;5011451;28;20049;-68
2022/10/01 10:57:30;;;;;;;5.82;4.18;;;;;;;16.74;75.73;100883.78;5009768;28;20057;-68
2022/10/01 11:00:01;;;;;;;8.55;4.55;;;;;;;16.72;76.41;100877.66;5009929;28;20483;-68
2022/10/01 11:02:31;;;;;;;6.30;3.85;;;;;;;16.75;76.16;100868.97;5008309;28;20057;-69
2022/10/01 11:05:04;;;;;;;7.57;4.30;;;;;;;16.78;76.46;100875.94;5002363;28;20046;-69
2022/10/01 11:07:33;;;;;;;8.20;4.82;;;;;;;16.81;76.28;100873.38;5001789;28;20604;-69
2022/10/01 11:10:24;;;;;;;7.80;3.85;;;;;;;16.83;75.83;100872.50;5013191;28;20636;-69
2022/10/01 11:13:05;;;;;;;8.50;4.18;;;;;;;16.86;75.51;100866.41;5001360;28;20053;-69
2022/10/01 11:16:09;;;;;;;7.38;4.25;;;;;;;16.89;74.98;100877.78;5017912;27;20616;-69
2022/10/01 11:19:31;;;;;;;6.72;4.53;;;;;;;16.91;74.70;100883.91;5027515;28;20053;-68
2022/10/01 11:22:13;;;;;;;7.03;4.85;;;;;;;16.94;74.55;100886.50;5017341;28;20049;-68
2022/10/01 11:25:08;;;;;;;7.72;4.72;;;;;;;16.96;74.41;100883.91;5021500;28;20427;-68
2022/10/01 11:27:48;;;;;;;9.38;4.95;;;;;;;16.94;74.62;100886.50;5011011;28;20041;-68
2022/10/01 11:30:23;;;;;;;10.15;4.40;;;;;;;16.95;74.47;100883.06;5025786;28;20683;-69
2022/10/01 11:33:02;;;;;;;7.20;3.80;;;;;;;16.94;73.96;100875.19;5027753;28;20553;-69
2022/10/01 11:35:43;;;;;;;7.63;4.22;;;;;;;16.93;73.85;100878.69;5022154;28;20570;-69
2022/10/01 11:38:35;;;;;;;7.95;3.88;;;;;;;16.91;73.79;100881.28;5040324;28;20111;-69
2022/10/01 11:41:14;;;;;;;5.93;4.23;;;;;;;16.91;73.91;100881.28;5018440;28;20045;-68
2022/10/01 11:43:47;;;;;;;6.15;4.13;;;;;;;16.92;73.46;100885.63;5022174;28;20337;-68
2022/10/01 11:46:28;;;;;;;10.13;5.05;;;;;;;16.93;72.95;100878.69;5025722;28;20076;-67
2022/10/01 11:49:02;;;;;;;7.22;4.93;;;;;;;16.93;73.43;100879.56;5022483;28;20056;-68
2022/10/01 11:51:39;;;;;;;6.22;4.63;;;;;;;16.93;73.70;100879.56;5030348;28;20081;-67
2022/10/01 11:54:13;;;;;;;6.28;4.22;;;;;;;16.91;74.23;100873.44;5026695;28;20524;-68